Flight Track Log - Related Links

Times and Time Zones

All times are in EDT time to prevent confusion due to time zone crossing. See the AAL1870 flight status page for this flight to view local times or setup timezone preferences in your user account.


Time Position Orientation Groundspeed Altitude Reporting Facility
EDT Latitude Longitude Course Direction KTS MPH feet Rate Location/Type
Mon 10:43:33 PM 33.9333 -118.4547 251° West 180 207 1,700  Level Los Angeles Center
Mon 10:44:34 PM 33.9128 -118.5261 251° West 233 268 2,800 1,805 Climbing Los Angeles Center
Mon 10:45:36 PM 33.8833 -118.6142 248° West 260 299 5,400 2,226 Climbing Los Angeles Center
Mon 10:46:38 PM 33.8194 -118.6497 205° Southwest 282 325 7,400 2,146 Climbing Los Angeles Center
Mon 10:47:39 PM 33.8008 -118.5669 105° East 294 338 9,800 1,902 Climbing Los Angeles Center
Mon 10:48:41 PM 33.8736 -118.4914 41° Northeast 326 375 11,300 1,610 Climbing Los Angeles Center
Mon 10:49:42 PM 33.9303 -118.3958 54° Northeast 361 415 13,100 2,098 Climbing Los Angeles Center
Mon 10:50:44 PM 33.9919 -118.2892 55° Northeast 381 438 15,600 2,488 Climbing Los Angeles Center
Mon 10:51:45 PM 34.0556 -118.1797 55° Northeast 393 452 18,200 2,439 Climbing Los Angeles Center
Mon 10:52:47 PM 34.1203 -118.0681 55° Northeast 403 464 20,600 2,177 Climbing Los Angeles Center
Mon 10:53:49 PM 34.1869 -117.9528 55° Northeast 415 478 22,700 2,000 Climbing Los Angeles Center
Mon 10:54:50 PM 34.2536 -117.8378 55° Northeast 419 482 24,700 2,000 Climbing Los Angeles Center
Mon 10:55:52 PM 34.3353 -117.6939 55° Northeast 431 496 26,800 1,512 Climbing Los Angeles Center
Mon 10:56:53 PM 34.3936 -117.5917 55° Northeast 436 502 27,800 1,220 Climbing Los Angeles Center
Mon 10:57:55 PM 34.4794 -117.4389 56° Northeast 457 526 29,300 1,561 Climbing Los Angeles Center
Mon 10:58:56 PM 34.5508 -117.3119 56° Northeast 459 528 31,000 1,610 Climbing Los Angeles Center
Mon 10:59:58 PM 34.6211 -117.1864 56° Northeast 455 524 32,600 1,610 Climbing Los Angeles Center
Mon 11:00:59 PM 34.6903 -117.0631 56° Northeast 447 514 34,300 1,171 Climbing Los Angeles Center
Mon 11:02:01 PM 34.7581 -116.9428 56° Northeast 438 504 35,000 341 Climbing Los Angeles Center
Mon 11:03:02 PM 34.8258 -116.8208 56° Northeast 437 503 35,000  Level Los Angeles Center
Mon 11:04:04 PM 34.8936 -116.6992 56° Northeast 435 501 35,000  Level Los Angeles Center
Mon 11:05:05 PM 34.9778 -116.5550 55° Northeast 438 504 35,000  Level Los Angeles Center
Mon 11:06:07 PM 35.0617 -116.4514 45° Northeast 432 497 35,000  Level Los Angeles Center
Mon 11:07:09 PM 35.1461 -116.3464 45° Northeast 433 498 35,000  Level Los Angeles Center
Mon 11:08:10 PM 35.2314 -116.2406 45° Northeast 437 503 35,000  Level Los Angeles Center
Mon 11:09:12 PM 35.3125 -116.1347 47° Northeast 432 497 35,000  Level Los Angeles Center
Mon 11:10:13 PM 35.3972 -116.0294 45° Northeast 434 499 35,000  Level Los Angeles Center
Mon 11:11:15 PM 35.5014 -115.9017 45° Northeast 441 507 35,000  Level Los Angeles Center
Mon 11:12:17 PM 35.5850 -115.7961 46° Northeast 428 493 35,000  Level Los Angeles Center
Mon 11:13:19 PM 35.6686 -115.6906 46° Northeast 429 494 35,000  Level Los Angeles Center
Mon 11:14:21 PM 35.7508 -115.5825 47° Northeast 432 497 35,000  Level Los Angeles Center
Mon 11:15:22 PM 35.8122 -115.4589 58° Northeast 434 499 35,000  Level Los Angeles Center
Mon 11:16:36 PM 35.8558 -115.3211 69° East 435 501 35,000  Level Los Angeles Center
Mon 11:17:38 PM 35.9122 -115.1269 70° East 434 499 35,000  Level Los Angeles Center
Mon 11:18:40 PM 35.9539 -114.9878 70° East 434 499 35,000  Level Los Angeles Center
Mon 11:19:41 PM 35.9956 -114.8503 69° East 432 497 35,000  Level Los Angeles Center
Mon 11:20:43 PM 36.0378 -114.7094 70° East 436 502 35,000  Level Los Angeles Center
Mon 11:21:45 PM 36.0794 -114.5681 70° East 438 504 35,000  Level Los Angeles Center
Mon 11:22:46 PM 36.1206 -114.4256 70° East 440 506 35,000  Level Los Angeles Center
Mon 11:23:48 PM 36.1619 -114.2833 70° East 440 506 35,000  Level Los Angeles Center
Mon 11:24:50 PM 36.2111 -114.1117 70° East 441 507 35,000  Level Los Angeles Center
Mon 11:25:52 PM 36.2531 -113.9683 70° East 443 510 35,000  Level Los Angeles Center
Mon 11:26:54 PM 36.2933 -113.8256 71° East 442 509 35,000  Level Los Angeles Center
Mon 11:27:55 PM 36.3328 -113.6819 71° East 439 505 35,000  Level Los Angeles Center
Mon 11:28:57 PM 36.3742 -113.5397 70° East 441 507 35,000  Level Los Angeles Center
Mon 11:29:59 PM 36.4158 -113.3986 70° East 438 504 35,000  Level Los Angeles Center
Mon 11:31:01 PM 36.4594 -113.2308 72° East 434 499 35,000  Level Los Angeles Center
Mon 11:32:03 PM 36.4986 -113.0894 71° East 433 498 35,000  Level Los Angeles Center
Mon 11:33:04 PM 36.5372 -112.9481 71° East 434 499 35,000  Level Los Angeles Center
Mon 11:34:06 PM 36.5769 -112.8069 71° East 434 499 35,000  Level Los Angeles Center
Mon 11:35:08 PM 36.6144 -112.6650 72° East 434 499 35,000  Level Los Angeles Center
Mon 11:36:10 PM 36.6544 -112.5231 71° East 435 501 35,000  Level Los Angeles Center
Mon 11:37:12 PM 36.7006 -112.3500 72° East 440 506 35,000  Level Los Angeles Center
Mon 11:38:14 PM 36.7400 -112.2047 71° East 443 510 35,000  Level Los Angeles Center
Mon 11:39:15 PM 36.7794 -112.0589 71° East 445 512 35,000  Level Los Angeles Center
Mon 11:40:17 PM 36.8186 -111.9122 72° East 447 514 35,000  Level Los Angeles Center
Mon 11:41:19 PM 36.8567 -111.7650 72° East 448 516 35,000  Level Los Angeles Center
Mon 11:42:21 PM 36.8967 -111.6183 71° East 448 516 35,000  Level Los Angeles Center
Mon 11:43:22 PM 36.9422 -111.4400 72° East 450 518 35,000  Level Los Angeles Center
Mon 11:44:24 PM 36.9814 -111.2919 72° East 450 518 35,000  Level Los Angeles Center
Mon 11:44:47 PM 36.9872 -111.2628 76° East 449 517 35,000  Level Denver Center
Mon 11:45:48 PM 37.0342 -111.0831 72° East 455 524 35,000  Level Denver Center
Mon 11:46:50 PM 37.0711 -110.9333 73° East 452 520 35,000  Level Denver Center
Mon 11:47:51 PM 37.1100 -110.7828 72° East 455 524 35,000  Level Denver Center
Mon 11:48:52 PM 37.1483 -110.6317 72° East 456 525 35,000  Level Denver Center
Mon 11:49:53 PM 37.1861 -110.4825 72° East 453 521 35,000  Level Denver Center
Mon 11:51:06 PM 37.2236 -110.3319 73° East 452 520 35,000  Level Denver Center
Mon 11:52:08 PM 37.2728 -110.1386 72° East 454 522 35,000  Level Denver Center
Mon 11:53:09 PM 37.3081 -109.9922 73° East 456 525 35,000  Level Denver Center
Mon 11:54:10 PM 37.3508 -109.8194 73° East 461 531 35,000  Level Denver Center
Mon 11:55:11 PM 37.3806 -109.6967 73° East 461 531 35,000  Level Denver Center
Mon 11:56:13 PM 37.4269 -109.5017 73° East 456 525 35,000  Level Denver Center
Mon 11:57:14 PM 37.4628 -109.3558 73° East 454 522 35,000 -148 Level Denver Center
Mon 11:58:15 PM 37.4969 -109.2103 73° East 453 521 34,700 -295 Descending Denver Center

Login

Don't have an account? Register now (free) for customized features, flight alerts, and more!